Time;durP1;ratioP1;P1;durP2;ratioP2;P2;SDS_P1;SDS_P2;PMS_P1;PMS_P2;Temp;Humidity;BMP_temperature;BMP_pressure;BME280_temperature;BME280_humidity;BME280_pressure;Samples;Min_cycle;Max_cycle;Signal;HPM_P1;HPM_P2
2021/06/27 00:00:20;;;;;;;2.80;1.35;;;;;;;17.67;79.21;97858.97;5053402;28;20021;-60
2021/06/27 00:02:46;;;;;;;0.40;0.40;;;;;;;17.66;79.25;97860.91;5056295;28;20036;-61
2021/06/27 00:05:14;;;;;;;2.08;1.02;;;;;;;17.65;79.03;97862.06;5056144;28;20517;-61
2021/06/27 00:07:40;;;;;;;0.60;0.60;;;;;;;17.68;79.22;97864.22;5037433;28;20029;-60
2021/06/27 00:10:11;;;;;;;1.50;0.70;;;;;;;17.74;79.04;97861.34;5055706;28;20040;-59
2021/06/27 00:12:38;;;;;;;1.70;1.05;;;;;;;17.78;78.71;97859.59;5056097;28;20453;-60
2021/06/27 00:15:11;;;;;;;0.63;0.28;;;;;;;17.83;78.46;97860.34;5055475;28;20055;-61
2021/06/27 00:17:37;;;;;;;0.68;0.60;;;;;;;17.91;78.23;97866.34;5037444;28;20055;-60
2021/06/27 00:20:07;;;;;;;0.75;0.75;;;;;;;17.98;78.01;97859.25;5055448;28;20037;-60
2021/06/27 00:22:33;;;;;;;0.38;0.30;;;;;;;18.03;77.87;97875.84;5037842;28;20502;-59
2021/06/27 00:24:59;;;;;;;0.50;0.50;;;;;;;18.02;77.88;97873.34;5055542;28;20057;-59
2021/06/27 00:27:24;;;;;;;0.40;0.40;;;;;;;18.06;77.86;97873.56;5055610;28;20028;-60
2021/06/27 00:29:50;;;;;;;0.75;0.52;;;;;;;18.11;77.74;97874.28;5055524;28;20036;-60
2021/06/27 00:32:16;;;;;;;0.75;0.73;;;;;;;18.18;77.65;97876.66;5055418;28;20521;-60
2021/06/27 00:34:42;;;;;;;0.10;0.10;;;;;;;18.24;77.44;97878.22;5055278;28;20530;-60
2021/06/27 00:37:09;;;;;;;1.52;0.55;;;;;;;18.21;77.50;97887.16;5055987;28;20027;-60
2021/06/27 00:39:35;;;;;;;0.30;0.30;;;;;;;18.17;77.66;97875.84;5054939;28;20083;-59
2021/06/27 00:42:01;;;;;;;0.30;0.30;;;;;;;18.15;77.74;97882.81;5055238;28;20560;-59
2021/06/27 00:44:27;;;;;;;4.00;1.13;;;;;;;18.13;77.76;97877.56;5055270;28;20033;-60
2021/06/27 00:46:54;;;;;;;1.30;0.88;;;;;;;18.21;77.48;97878.81;5055012;28;20051;-60
2021/06/27 00:49:21;;;;;;;1.45;0.85;;;;;;;18.31;77.32;97878.59;5055050;28;20040;-59
2021/06/27 00:51:47;;;;;;;0.22;0.22;;;;;;;18.34;77.08;97864.13;5054772;28;20058;-60
2021/06/27 00:54:13;;;;;;;3.25;1.27;;;;;;;18.44;76.92;97878.94;5054739;28;20114;-60
2021/06/27 00:56:39;;;;;;;0.32;0.32;;;;;;;18.43;76.99;97883.66;5054996;28;20498;-61
2021/06/27 00:59:05;;;;;;;0.47;0.47;;;;;;;18.42;76.92;97884.81;5036977;28;20068;-60
2021/06/27 01:01:31;;;;;;;0.20;0.20;;;;;;;18.49;76.90;97887.16;5054592;28;20167;-60
2021/06/27 01:03:56;;;;;;;0.80;0.38;;;;;;;18.61;76.70;97893.03;5054656;28;20112;-60
2021/06/27 01:06:22;;;;;;;0.40;0.40;;;;;;;18.69;76.40;97892.28;5054988;28;20460;-59
2021/06/27 01:08:48;;;;;;;2.88;0.77;;;;;;;18.69;76.28;97897.03;5054144;28;20067;-60
2021/06/27 01:11:14;;;;;;;1.65;0.63;;;;;;;18.67;76.37;97899.31;5055463;28;20376;-59
2021/06/27 01:13:39;;;;;;;0.20;0.17;;;;;;;18.64;76.77;97900.75;5036248;28;20167;-60
2021/06/27 01:16:05;;;;;;;0.25;0.25;;;;;;;18.61;76.73;97901.38;5054925;28;20033;-59
2021/06/27 01:18:31;;;;;;;0.95;0.73;;;;;;;18.64;76.64;97900.75;5054868;28;20572;-59
2021/06/27 01:20:57;;;;;;;0.30;0.30;;;;;;;18.70;76.37;97904.25;5055473;28;20032;-59
2021/06/27 01:23:23;;;;;;;0.28;0.28;;;;;;;18.72;76.52;97904.75;5054288;28;20033;-58
2021/06/27 01:25:52;;;;;;;0.13;0.13;;;;;;;18.83;76.18;97908.97;5054052;28;20064;-59
2021/06/27 01:28:19;;;;;;;0.45;0.45;;;;;;;18.91;75.77;97910.22;5054733;28;20040;-59
2021/06/27 01:30:45;;;;;;;1.25;0.80;;;;;;;18.96;75.70;97917.63;5054202;28;20065;-59
2021/06/27 01:33:15;;;;;;;0.82;0.82;;;;;;;18.96;75.73;97910.09;5053804;28;20513;-59
2021/06/27 01:35:42;;;;;;;1.45;0.95;;;;;;;19.03;75.70;97918.84;5054074;28;20047;-61
2021/06/27 01:38:08;;;;;;;1.85;1.05;;;;;;;19.06;75.41;97920.16;5053955;28;20112;-60
2021/06/27 01:40:35;;;;;;;0.38;0.38;;;;;;;19.02;75.65;97921.94;5054139;28;20084;-60
2021/06/27 01:43:20;;;;;;;0.80;0.80;;;;;;;18.93;76.02;97923.81;5054350;28;20037;-59
2021/06/27 01:45:50;;;;;;;1.45;0.47;;;;;;;18.87;76.06;97928.66;5035927;28;20484;-61
2021/06/27 01:48:16;;;;;;;0.38;0.30;;;;;;;18.85;76.17;97933.69;5053877;28;20036;-60
2021/06/27 01:50:44;;;;;;;0.35;0.32;;;;;;;18.79;76.35;97926.59;5053820;28;20144;-59
2021/06/27 01:53:12;;;;;;;0.20;0.20;;;;;;;18.78;76.45;97928.53;5053740;28;20120;-60
2021/06/27 01:55:39;;;;;;;0.22;0.22;;;;;;;18.82;76.03;97935.13;5053532;28;20041;-60
2021/06/27 01:58:04;;;;;;;0.60;0.60;;;;;;;18.85;76.14;97942.03;5052579;28;20441;-61
2021/06/27 02:00:31;;;;;;;0.50;0.50;;;;;;;18.84;75.94;97943.16;5053394;28;20087;-60
2021/06/27 02:02:58;;;;;;;0.65;0.65;;;;;;;18.82;76.05;97940.69;5035921;28;20068;-59
2021/06/27 02:05:24;;;;;;;0.80;0.80;;;;;;;18.80;75.92;97956.88;5052023;28;20116;-59
2021/06/27 02:07:50;;;;;;;0.68;0.32;;;;;;;18.75;76.12;97962.53;5053812;28;20053;-59
2021/06/27 02:10:22;;;;;;;0.95;0.95;;;;;;;18.65;76.50;97948.81;5053657;28;20036;-59
2021/06/27 02:12:50;;;;;;;0.65;0.65;;;;;;;18.61;76.41;97945.84;5053438;28;20126;-58
2021/06/27 02:15:16;;;;;;;2.80;0.65;;;;;;;18.61;76.50;97950.56;5053682;28;20028;-59
2021/06/27 02:18:03;;;;;;;0.80;0.65;;;;;;;18.59;76.40;97953.66;5053095;28;20064;-60
2021/06/27 02:20:28;;;;;;;1.45;0.75;;;;;;;18.61;76.41;97953.34;5053581;28;20059;-58
2021/06/27 02:22:54;;;;;;;0.50;0.50;;;;;;;18.66;76.10;97947.69;5052976;28;20033;-59
2021/06/27 02:25:20;;;;;;;0.75;0.75;;;;;;;18.66;76.07;97956.84;5034972;28;20036;-59
2021/06/27 02:27:46;;;;;;;2.80;1.13;;;;;;;18.69;75.69;97958.19;5052929;28;20037;-60
2021/06/27 02:30:13;;;;;;;0.95;0.55;;;;;;;18.73;75.47;97954.50;5035046;28;20041;-61
2021/06/27 02:32:39;;;;;;;1.05;1.00;;;;;;;18.78;75.56;97959.13;5052641;28;20098;-60
2021/06/27 02:35:05;;;;;;;1.23;1.02;;;;;;;18.82;75.26;97949.03;5055067;28;20433;-60
2021/06/27 02:37:31;;;;;;;1.65;0.85;;;;;;;18.96;74.88;97959.34;5053678;28;20081;-60
2021/06/27 02:39:57;;;;;;;0.55;0.55;;;;;;;19.06;74.77;97956.34;5052832;28;20025;-59
2021/06/27 02:42:23;;;;;;;0.52;0.52;;;;;;;19.13;74.24;97958.72;5052727;28;20449;-60
2021/06/27 02:44:49;;;;;;;0.63;0.63;;;;;;;19.14;74.64;97963.97;5052807;28;20024;-59
2021/06/27 02:47:16;;;;;;;0.45;0.45;;;;;;;19.12;74.46;97962.63;5052616;28;20049;-59
2021/06/27 02:49:43;;;;;;;1.02;0.77;;;;;;;19.16;74.59;97960.88;5052908;28;20030;-59
2021/06/27 02:52:09;;;;;;;0.10;0.10;;;;;;;19.23;74.42;97961.25;5052782;28;20499;-59
2021/06/27 02:54:35;;;;;;;0.93;0.75;;;;;;;19.29;74.08;97961.94;5052845;28;20040;-59
2021/06/27 02:57:00;;;;;;;0.32;0.30;;;;;;;19.42;73.64;97963.91;5052604;28;20029;-59
2021/06/27 02:59:26;;;;;;;1.27;1.17;;;;;;;19.57;73.08;97963.53;5052718;28;20033;-59
2021/06/27 03:01:52;;;;;;;0.75;0.63;;;;;;;19.71;72.96;97954.28;5052428;28;20106;-60
2021/06/27 03:04:17;;;;;;;0.65;0.65;;;;;;;19.83;72.45;97959.31;5052659;28;20028;-60
2021/06/27 03:06:43;;;;;;;1.05;0.98;;;;;;;20.08;72.00;97975.41;5052796;28;20033;-60
2021/06/27 03:09:09;;;;;;;0.43;0.43;;;;;;;20.23;71.36;97954.66;5052354;28;20053;-60
2021/06/27 03:11:35;;;;;;;0.38;0.38;;;;;;;21.15;69.43;97961.59;5034427;28;20383;-60
2021/06/27 03:14:01;;;;;;;0.10;0.10;;;;;;;24.80;60.16;97964.03;5017977;28;20127;-60
2021/06/27 03:16:27;;;;;;;3.10;0.73;;;;;;;27.89;53.93;97960.38;5052844;28;20506;-60
2021/06/27 03:18:52;;;;;;;0.30;0.30;;;;;;;30.15;50.26;97962.53;5052777;28;20036;-60
2021/06/27 03:21:18;;;;;;;0.45;0.45;;;;;;;32.16;47.91;97959.66;5052464;28;20400;-60
2021/06/27 03:23:44;;;;;;;0.10;0.10;;;;;;;33.97;45.85;97949.91;5052860;28;20089;-59
2021/06/27 03:26:10;;;;;;;0.10;0.10;;;;;;;35.55;44.13;97956.56;5017940;28;20083;-60
2021/06/27 03:28:38;;;;;;;0.20;0.20;;;;;;;36.63;43.33;97957.28;5052144;28;20100;-59
2021/06/27 03:31:03;;;;;;;0.20;0.20;;;;;;;37.53;43.12;97955.84;5052109;28;20058;-61
2021/06/27 03:33:29;;;;;;;0.10;0.10;;;;;;;38.24;42.66;97967.13;5052303;28;20028;-60
2021/06/27 03:35:55;;;;;;;0.20;0.20;;;;;;;38.35;43.37;97969.75;5054810;28;20040;-61
2021/06/27 03:40:53;;;;;;;0.10;0.10;;;;;;;39.70;42.32;97966.09;5056066;28;20025;-60
2021/06/27 03:43:19;;;;;;;0.20;0.20;;;;;;;40.00;42.09;97961.13;5056162;28;20271;-61
2021/06/27 03:45:45;;;;;;;0.10;0.10;;;;;;;38.53;45.27;97955.00;5056431;28;20059;-60
2021/06/27 03:48:11;;;;;;;0.88;0.80;;;;;;;36.42;49.65;97953.50;5056457;28;20032;-60
2021/06/27 03:50:37;;;;;;;0.30;0.30;;;;;;;36.89;48.45;97949.94;5056459;28;20032;-61
2021/06/27 03:53:03;;;;;;;0.20;0.20;;;;;;;37.84;46.30;97955.63;5055697;28;20044;-60
2021/06/27 03:55:29;;;;;;;0.40;0.32;;;;;;;37.84;46.28;97962.19;5055778;28;20037;-60
2021/06/27 03:57:56;;;;;;;1.40;0.68;;;;;;;36.07;49.99;97940.47;5059446;28;20039;-60
2021/06/27 04:00:22;;;;;;;0.10;0.10;;;;;;;36.21;49.13;97951.72;5047607;28;20041;-60
2021/06/27 04:02:48;;;;;;;0.88;0.20;;;;;;;34.53;52.02;97946.41;5048423;28;20097;-60
2021/06/27 04:05:14;;;;;;;0.10;0.10;;;;;;;33.29;54.64;97955.75;5060698;28;20044;-60
2021/06/27 04:07:40;;;;;;;0.30;0.30;;;;;;;32.18;56.46;97962.09;5032864;28;20037;-60
2021/06/27 04:10:08;;;;;;;0.47;0.10;;;;;;;31.10;58.19;97948.91;5039261;28;20495;-61
2021/06/27 04:12:34;;;;;;;0.20;0.20;;;;;;;32.65;54.08;97957.34;5051470;28;20037;-62
2021/06/27 04:14:59;;;;;;;0.20;0.20;;;;;;;34.56;49.24;97946.38;5041163;28;20028;-61
2021/06/27 04:17:25;;;;;;;0.38;0.25;;;;;;;36.87;44.55;97958.16;5061890;28;20133;-63
2021/06/27 04:19:52;;;;;;;0.20;0.20;;;;;;;38.60;41.60;97943.38;5034511;28;20025;-65
2021/06/27 04:22:19;;;;;;;0.70;0.52;;;;;;;38.82;41.76;97945.75;5020013;28;20033;-62
2021/06/27 04:24:45;;;;;;;0.35;0.35;;;;;;;36.89;45.57;97955.66;5039867;28;20079;-61
2021/06/27 04:27:11;;;;;;;0.10;0.10;;;;;;;37.50;44.29;97950.94;5043452;28;20396;-61
2021/06/27 04:29:37;;;;;;;0.10;0.10;;;;;;;38.09;43.00;97955.16;5052908;28;20055;-64
2021/06/27 04:32:04;;;;;;;0.30;0.30;;;;;;;36.38;46.45;97940.50;5050300;28;20491;-61
2021/06/27 04:34:31;;;;;;;0.22;0.22;;;;;;;33.56;52.10;97953.28;5059854;28;20032;-61
2021/06/27 04:36:57;;;;;;;0.55;0.55;;;;;;;34.00;50.89;97946.25;5069890;28;20414;-62
2021/06/27 04:39:23;;;;;;;0.30;0.30;;;;;;;34.43;49.21;97944.44;5038472;28;20037;-61
2021/06/27 04:41:49;;;;;;;1.27;0.75;;;;;;;33.20;51.67;97941.91;5046712;28;20043;-62
2021/06/27 04:44:15;;;;;;;2.17;0.63;;;;;;;33.35;50.98;97951.31;5038792;28;20054;-61
2021/06/27 04:46:41;;;;;;;0.30;0.30;;;;;;;32.96;51.25;97946.41;5039120;28;20063;-60
2021/06/27 04:49:08;;;;;;;1.55;0.70;;;;;;;34.62;46.96;97925.97;5032213;28;20474;-62
2021/06/27 04:51:37;;;;;;;0.10;0.10;;;;;;;36.98;42.79;97926.50;5032540;28;20573;-62
2021/06/27 04:54:04;;;;;;;0.20;0.20;;;;;;;36.36;43.66;97931.56;5039308;28;20025;-62
2021/06/27 04:56:29;;;;;;;0.10;0.10;;;;;;;35.39;45.85;97939.22;5041130;28;20024;-60
2021/06/27 04:58:55;;;;;;;0.30;0.30;;;;;;;36.88;42.94;97947.53;5039348;28;20096;-61
2021/06/27 05:01:21;;;;;;;0.20;0.20;;;;;;;38.38;40.38;97945.94;5039092;28;20034;-63
2021/06/27 05:03:47;;;;;;;0.10;0.10;;;;;;;38.53;40.41;97938.63;5031551;28;20036;-61
2021/06/27 05:06:12;;;;;;;0.20;0.20;;;;;;;36.35;44.26;97950.72;5061545;28;20032;-60
2021/06/27 05:08:38;;;;;;;0.77;0.60;;;;;;;34.62;47.30;97940.22;5057285;28;20165;-61
2021/06/27 05:11:04;;;;;;;0.30;0.30;;;;;;;34.04;48.07;97947.03;5071433;28;20036;-61
2021/06/27 05:13:30;;;;;;;0.10;0.10;;;;;;;33.33;49.42;97948.88;5050295;28;20033;-63
2021/06/27 05:15:56;;;;;;;0.20;0.20;;;;;;;33.42;48.62;97937.06;5035463;28;20124;-62
2021/06/27 05:18:23;;;;;;;0.10;0.10;;;;;;;34.43;45.98;97942.38;5046217;28;20497;-63
2021/06/27 05:20:49;;;;;;;0.63;0.50;;;;;;;33.27;48.30;97935.47;5071819;28;20052;-61
2021/06/27 05:23:16;;;;;;;0.80;0.40;;;;;;;33.53;47.10;97914.25;5041062;28;20554;-64
2021/06/27 05:25:42;;;;;;;0.20;0.20;;;;;;;35.80;42.59;97920.44;5039459;28;20399;-64
2021/06/27 05:28:08;;;;;;;0.10;0.10;;;;;;;37.89;39.43;97920.75;5035026;28;20032;-62
2021/06/27 05:30:34;;;;;;;0.57;0.20;;;;;;;39.62;36.99;97922.38;5031421;28;20160;-62
2021/06/27 05:33:01;;;;;;;0.28;0.28;;;;;;;39.67;37.21;97918.97;5035798;28;20120;-59
2021/06/27 05:35:27;;;;;;;0.15;0.15;;;;;;;39.92;37.10;97934.69;5031936;28;20033;-60
2021/06/27 05:37:53;;;;;;;0.22;0.22;;;;;;;40.48;36.26;97936.31;5031587;28;20044;-60
2021/06/27 05:40:19;;;;;;;0.10;0.10;;;;;;;40.26;37.04;97931.19;5033911;28;20068;-60
2021/06/27 05:42:46;;;;;;;0.22;0.22;;;;;;;40.92;36.22;97924.25;5032587;28;20033;-61
2021/06/27 05:45:12;;;;;;;0.10;0.10;;;;;;;41.72;35.59;97923.09;5034176;28;20384;-62
2021/06/27 05:47:38;;;;;;;0.13;0.13;;;;;;;40.85;37.07;97924.47;5034362;28;20050;-61
2021/06/27 05:50:05;;;;;;;0.45;0.30;;;;;;;38.05;41.39;97917.16;5034353;28;20037;-61
2021/06/27 05:52:30;;;;;;;0.05;0.05;;;;;;;35.65;45.44;97916.91;5033625;28;20037;-61
2021/06/27 05:54:56;;;;;;;0.10;0.10;;;;;;;33.60;48.86;97925.63;5033067;28;20136;-51
2021/06/27 05:57:22;;;;;;;0.20;0.20;;;;;;;31.94;51.56;97927.53;5030317;28;20045;-60
2021/06/27 05:59:48;;;;;;;0.20;0.20;;;;;;;30.75;52.92;97913.38;5033534;28;20032;-53
2021/06/27 06:02:14;;;;;;;0.77;0.20;;;;;;;30.93;51.30;97916.38;5033870;28;20080;-59
2021/06/27 06:04:40;;;;;;;0.00;0.00;;;;;;;30.16;52.04;97918.03;5032734;28;20025;-58
2021/06/27 06:07:06;;;;;;;0.10;0.10;;;;;;;29.39;52.83;97915.44;5033261;28;20029;-58
2021/06/27 06:09:32;;;;;;;0.22;0.22;;;;;;;28.80;53.48;97920.59;5034007;28;20081;-60
2021/06/27 06:11:58;;;;;;;0.10;0.10;;;;;;;28.29;53.10;97914.03;5027628;28;20034;-49
2021/06/27 06:14:24;;;;;;;0.98;0.47;;;;;;;27.93;53.16;97915.31;5033025;28;20032;-60
2021/06/27 06:16:50;;;;;;;0.20;0.20;;;;;;;27.67;52.72;97921.66;5032018;28;20495;-62
2021/06/27 06:19:19;;;;;;;0.65;0.52;;;;;;;27.69;52.04;97914.44;5029430;28;20034;-51
2021/06/27 06:21:46;;;;;;;0.20;0.20;;;;;;;27.84;50.99;97909.94;5029070;28;20086;-60
2021/06/27 06:24:12;;;;;;;0.20;0.10;;;;;;;27.83;50.69;97918.72;5032921;28;20546;-58
2021/06/27 06:26:38;;;;;;;0.93;0.15;;;;;;;27.38;50.98;97918.19;5031698;28;20034;-58
2021/06/27 06:29:04;;;;;;;0.10;0.10;;;;;;;26.79;51.65;97914.38;5033013;28;20025;-58
2021/06/27 06:31:30;;;;;;;0.13;0.13;;;;;;;26.22;52.41;97915.34;5033344;28;20037;-58
2021/06/27 06:33:56;;;;;;;0.17;0.17;;;;;;;25.76;53.27;97916.84;5032977;28;20120;-58
2021/06/27 06:36:22;;;;;;;0.10;0.10;;;;;;;25.41;53.30;97906.19;5032857;28;20135;-59
2021/06/27 06:38:48;;;;;;;0.08;0.08;;;;;;;25.21;53.43;97911.59;5032728;28;20032;-58
2021/06/27 06:41:16;;;;;;;0.55;0.55;;;;;;;25.21;52.71;97891.13;5032997;28;20048;-52
2021/06/27 06:43:42;;;;;;;0.00;0.00;;;;;;;25.22;52.19;97896.38;5033208;28;20218;-59
2021/06/27 06:46:08;;;;;;;0.10;0.10;;;;;;;25.24;51.99;97908.06;5032718;28;20037;-59
2021/06/27 06:48:34;;;;;;;0.50;0.50;;;;;;;25.25;51.30;97892.00;5033059;28;20029;-61
2021/06/27 06:50:59;;;;;;;0.00;0.00;;;;;;;25.33;50.94;97902.34;5031093;28;20040;-50
2021/06/27 06:53:25;;;;;;;0.15;0.15;;;;;;;25.45;50.59;97907.09;5032721;28;20033;-60
2021/06/27 06:55:51;;;;;;;0.10;0.10;;;;;;;25.55;49.79;97917.84;5032772;28;20375;-58
2021/06/27 06:58:17;;;;;;;0.10;0.10;;;;;;;25.52;49.50;97908.13;5032982;28;20040;-58
2021/06/27 07:00:44;;;;;;;0.35;0.30;;;;;;;25.65;49.21;97905.28;5034357;28;20029;-59
2021/06/27 07:03:09;;;;;;;0.08;0.08;;;;;;;25.79;49.01;97914.13;5033027;28;20140;-50
2021/06/27 07:05:36;;;;;;;0.10;0.10;;;;;;;25.66;49.02;97896.50;5032187;28;20116;-51
2021/06/27 07:08:01;;;;;;;0.10;0.10;;;;;;;25.45;49.19;97899.47;5032466;28;20083;-57
2021/06/27 07:10:27;;;;;;;0.10;0.10;;;;;;;25.48;48.98;97901.56;5032108;28;20038;-50
2021/06/27 07:12:53;;;;;;;0.10;0.10;;;;;;;25.49;48.88;97908.03;5030702;28;20120;-54
2021/06/27 07:15:19;;;;;;;0.25;0.25;;;;;;;25.48;48.74;97907.19;5032991;28;20029;-57
2021/06/27 07:17:45;;;;;;;0.15;0.15;;;;;;;25.49;48.64;97906.03;5030995;28;20030;-55
2021/06/27 07:20:13;;;;;;;0.03;0.03;;;;;;;25.34;48.57;97904.78;5032165;28;20036;-56
2021/06/27 07:22:39;;;;;;;0.25;0.17;;;;;;;25.28;49.04;97896.91;5032150;28;20041;-57
2021/06/27 07:25:06;;;;;;;0.10;0.10;;;;;;;25.43;48.50;97898.22;5032526;28;20033;-60
2021/06/27 07:27:32;;;;;;;0.10;0.10;;;;;;;25.84;47.63;97907.44;5032090;28;20087;-58
2021/06/27 07:29:58;;;;;;;0.32;0.30;;;;;;;26.23;46.66;97902.91;5032165;28;20037;-58
2021/06/27 07:32:24;;;;;;;0.63;0.63;;;;;;;26.33;46.20;97914.81;5032226;28;20025;-58
2021/06/27 07:34:50;;;;;;;0.10;0.10;;;;;;;26.17;46.93;97920.41;5031622;28;20033;-59
2021/06/27 07:37:15;;;;;;;0.00;0.00;;;;;;;25.98;46.93;97923.88;5031105;28;20079;-64
2021/06/27 07:39:41;;;;;;;0.10;0.10;;;;;;;25.69;47.68;97928.69;5032449;28;20037;-48
2021/06/27 07:42:07;;;;;;;0.10;0.10;;;;;;;25.49;47.97;97925.72;5032199;28;20037;-50
2021/06/27 07:44:33;;;;;;;3.53;1.08;;;;;;;25.42;48.37;97936.72;5031515;28;20039;-57
2021/06/27 07:46:59;;;;;;;0.85;0.35;;;;;;;25.49;47.72;97944.56;5032222;28;20084;-50
2021/06/27 07:49:24;;;;;;;0.00;0.00;;;;;;;25.56;47.68;97932.72;5030340;28;20495;-51
2021/06/27 07:51:50;;;;;;;0.10;0.10;;;;;;;25.73;47.07;97929.59;5032351;28;20079;-59
2021/06/27 07:54:16;;;;;;;0.22;0.22;;;;;;;26.08;46.32;97937.47;5032286;28;20108;-57
2021/06/27 07:56:42;;;;;;;0.10;0.10;;;;;;;26.18;45.98;97928.50;5032021;28;20511;-51
2021/06/27 07:59:09;;;;;;;0.17;0.17;;;;;;;25.93;46.58;97946.63;5032117;28;20113;-55
2021/06/27 08:01:35;;;;;;;0.10;0.10;;;;;;;25.60;47.17;97967.38;5032142;28;20402;-52
2021/06/27 08:04:01;;;;;;;0.43;0.35;;;;;;;25.34;47.85;97946.13;5031915;28;20025;-50
2021/06/27 08:06:27;;;;;;;0.28;0.10;;;;;;;25.29;47.54;97944.31;5032040;28;20083;-61
2021/06/27 08:08:53;;;;;;;0.10;0.10;;;;;;;25.49;47.40;97944.56;5031617;28;20418;-56
2021/06/27 08:11:18;;;;;;;0.10;0.10;;;;;;;25.98;46.03;97949.19;5031952;28;20029;-59
2021/06/27 08:13:44;;;;;;;0.10;0.10;;;;;;;26.26;45.57;97949.19;5031590;28;20041;-52
2021/06/27 08:16:11;;;;;;;0.20;0.20;;;;;;;26.21;45.59;97955.91;5031816;28;20041;-58
2021/06/27 08:18:36;;;;;;;0.10;0.10;;;;;;;25.86;46.14;97948.06;5030727;28;20116;-59
2021/06/27 08:21:02;;;;;;;0.08;0.08;;;;;;;25.51;46.83;97965.53;5032803;28;20134;-59
2021/06/27 08:23:28;;;;;;;0.05;0.05;;;;;;;25.34;46.91;97969.41;5035220;28;20030;-58
2021/06/27 08:25:54;;;;;;;0.73;0.22;;;;;;;25.33;46.86;97950.09;5035261;28;20032;-56
2021/06/27 08:28:20;;;;;;;0.05;0.05;;;;;;;25.29;47.03;97964.00;5035616;28;20053;-58
2021/06/27 08:30:45;;;;;;;0.20;0.20;;;;;;;25.25;47.07;97951.00;5035186;28;20470;-60
2021/06/27 08:33:11;;;;;;;0.10;0.10;;;;;;;25.31;46.88;97966.50;5035796;28;20040;-60
2021/06/27 08:35:37;;;;;;;0.20;0.20;;;;;;;25.58;45.84;97961.31;5033746;28;20088;-62
2021/06/27 08:38:03;;;;;;;0.20;0.20;;;;;;;25.89;45.28;97949.34;5033706;28;20088;-58
2021/06/27 08:40:29;;;;;;;1.02;0.30;;;;;;;26.27;44.82;97964.91;5035203;28;20037;-57
2021/06/27 08:42:55;;;;;;;0.20;0.20;;;;;;;26.38;44.35;97965.19;5034554;28;20049;-59
2021/06/27 08:45:23;;;;;;;0.10;0.10;;;;;;;26.19;44.78;97974.31;5034938;28;20060;-58
2021/06/27 08:47:52;;;;;;;0.10;0.10;;;;;;;25.85;45.52;97966.13;5034722;28;20454;-59
2021/06/27 08:50:20;;;;;;;0.10;0.10;;;;;;;25.55;46.11;97968.44;5034449;28;20128;-57
2021/06/27 08:52:46;;;;;;;0.00;0.00;;;;;;;25.16;46.45;97974.44;5034501;28;20033;-60
2021/06/27 08:55:14;;;;;;;0.17;0.17;;;;;;;25.00;46.93;97976.34;5034818;28;20036;-58
2021/06/27 08:57:42;;;;;;;0.10;0.10;;;;;;;24.98;46.98;97984.28;5034771;28;20037;-57
2021/06/27 09:00:09;;;;;;;0.10;0.10;;;;;;;25.04;46.27;97976.44;5034344;28;20116;-58
2021/06/27 09:02:35;;;;;;;0.00;0.00;;;;;;;25.03;46.06;97975.63;5034608;28;20029;-61
2021/06/27 09:05:01;;;;;;;0.10;0.10;;;;;;;24.99;46.16;97981.09;5034788;28;20120;-62
2021/06/27 09:07:38;;;;;;;0.20;0.20;;;;;;;24.94;46.13;97969.28;5034446;28;20112;-60
2021/06/27 09:10:08;;;;;;;0.20;0.20;;;;;;;24.83;46.48;97980.97;5034657;28;20132;-60
2021/06/27 09:12:54;;;;;;;0.17;0.17;;;;;;;24.59;46.67;97972.56;5034097;28;20030;-55
2021/06/27 09:15:43;;;;;;;0.20;0.20;;;;;;;24.60;46.39;97989.06;5034229;28;20037;-50
2021/06/27 09:18:14;;;;;;;0.20;0.20;;;;;;;24.71;46.07;97986.59;5032921;28;20036;-61
2021/06/27 09:20:43;;;;;;;0.10;0.10;;;;;;;24.80;45.84;97992.09;5034045;28;20043;-53
2021/06/27 09:23:10;;;;;;;0.20;0.20;;;;;;;24.80;45.69;97990.09;5032925;28;20399;-59
2021/06/27 09:25:37;;;;;;;0.10;0.10;;;;;;;24.81;45.65;98000.19;5032780;28;20030;-61
2021/06/27 09:28:17;;;;;;;0.00;0.00;;;;;;;24.82;45.82;97999.03;5032571;28;20029;-52
2021/06/27 09:30:51;;;;;;;0.15;0.15;;;;;;;24.81;45.78;97986.13;5033713;28;20067;-57
2021/06/27 09:33:23;;;;;;;0.10;0.10;;;;;;;24.90;45.40;97999.25;5033200;28;20033;-59
2021/06/27 09:35:53;;;;;;;0.10;0.10;;;;;;;25.00;45.18;97993.19;5034223;28;20033;-53
2021/06/27 09:38:38;;;;;;;0.00;0.00;;;;;;;25.08;44.91;97986.63;5032789;28;20033;-62
2021/06/27 09:41:19;;;;;;;0.00;0.00;;;;;;;25.12;44.87;97997.97;5033766;28;20068;-62
2021/06/27 09:44:14;;;;;;;0.10;0.10;;;;;;;25.07;44.91;97999.00;5030139;28;20127;-58
2021/06/27 09:46:46;;;;;;;0.10;0.10;;;;;;;25.10;44.99;97987.09;5034120;28;20052;-60
2021/06/27 09:49:18;;;;;;;0.10;0.10;;;;;;;25.22;44.54;98005.09;5033795;28;20033;-59
2021/06/27 09:51:58;;;;;;;0.00;0.00;;;;;;;25.36;44.15;97995.16;5033653;28;20033;-58
2021/06/27 09:54:26;;;;;;;0.10;0.10;;;;;;;25.49;43.94;97992.34;5030974;28;20087;-55
2021/06/27 09:56:53;;;;;;;0.00;0.00;;;;;;;25.56;43.89;97988.94;5031585;28;20452;-61
2021/06/27 09:59:20;;;;;;;0.10;0.10;;;;;;;25.72;43.83;97989.81;5032218;28;20048;-56
2021/06/27 10:01:46;;;;;;;0.00;0.00;;;;;;;25.87;43.49;97993.91;5033363;28;20041;-59
2021/06/27 10:04:27;;;;;;;0.10;0.10;;;;;;;26.10;43.33;97987.72;5031880;28;20067;-60
2021/06/27 10:06:56;;;;;;;0.15;0.15;;;;;;;26.36;42.65;97973.19;5033462;28;20044;-59
2021/06/27 10:09:24;;;;;;;0.10;0.10;;;;;;;26.50;42.51;98001.72;5032867;28;20087;-53
2021/06/27 10:12:07;;;;;;;0.10;0.10;;;;;;;26.40;42.72;97999.44;5033028;28;20029;-51
2021/06/27 10:14:48;;;;;;;0.30;0.30;;;;;;;26.16;43.34;97987.13;5033275;28;20033;-58
2021/06/27 10:17:14;;;;;;;0.43;0.43;;;;;;;25.95;43.62;97992.09;5033009;28;20037;-51
2021/06/27 10:19:40;;;;;;;0.10;0.10;;;;;;;25.73;44.21;97991.47;5032864;28;20040;-54
2021/06/27 10:22:07;;;;;;;0.30;0.20;;;;;;;25.64;44.36;97996.41;5033374;28;20029;-53
2021/06/27 10:24:33;;;;;;;0.00;0.00;;;;;;;25.51;44.71;97993.63;5031718;28;20461;-58
2021/06/27 10:26:59;;;;;;;0.38;0.10;;;;;;;25.47;44.36;97998.31;5032943;28;20466;-55
2021/06/27 10:29:26;;;;;;;0.10;0.10;;;;;;;25.54;44.35;97983.66;5032397;28;20065;-62
2021/06/27 10:31:54;;;;;;;0.10;0.10;;;;;;;25.81;43.70;97989.66;5035222;28;20120;-62
2021/06/27 10:34:21;;;;;;;0.10;0.10;;;;;;;26.05;43.18;97986.00;5033015;28;20052;-59
2021/06/27 10:36:54;;;;;;;0.73;0.20;;;;;;;26.19;43.07;97977.13;5033102;28;20087;-59
2021/06/27 10:39:20;;;;;;;0.40;0.25;;;;;;;26.23;42.95;97990.13;5031580;28;20030;-61
2021/06/27 10:42:01;;;;;;;0.13;0.13;;;;;;;26.29;43.03;97992.69;5033373;28;20048;-60
2021/06/27 10:44:57;;;;;;;0.13;0.13;;;;;;;26.37;42.87;97983.28;5031595;28;20463;-60
2021/06/27 10:47:32;;;;;;;0.10;0.10;;;;;;;26.32;42.84;97994.78;5011087;28;20080;-59
2021/06/27 10:49:58;;;;;;;0.10;0.10;;;;;;;26.18;43.29;98007.28;5011412;28;20038;-60
2021/06/27 10:52:24;;;;;;;0.08;0.08;;;;;;;25.99;43.36;97998.66;5010850;28;20038;-58
2021/06/27 10:55:29;;;;;;;0.13;0.13;;;;;;;25.86;44.05;97997.88;5010681;28;20046;-64
2021/06/27 10:58:04;;;;;;;0.10;0.10;;;;;;;25.69;44.10;98004.59;4972085;28;20172;-52
2021/06/27 11:00:55;;;;;;;0.10;0.10;;;;;;;25.42;44.39;97994.94;4971474;28;20489;-59
2021/06/27 11:03:26;;;;;;;0.08;0.08;;;;;;;25.38;44.51;97992.00;4971546;28;20146;-52
2021/06/27 11:05:57;;;;;;;0.10;0.10;;;;;;;25.44;44.34;98001.84;4971065;28;20062;-61
2021/06/27 11:08:39;;;;;;;1.17;0.40;;;;;;;25.46;44.42;97993.06;4971518;28;20061;-61
2021/06/27 11:11:20;;;;;;;0.10;0.10;;;;;;;25.50;44.23;98005.22;4971693;28;20098;-54
2021/06/27 11:14:10;;;;;;;0.10;0.10;;;;;;;25.51;44.26;98012.47;4971469;28;20035;-59
2021/06/27 11:17:01;;;;;;;0.10;0.10;;;;;;;25.28;44.27;98003.69;4971505;28;20047;-60
2021/06/27 11:19:29;;;;;;;0.45;0.30;;;;;;;25.10;44.81;98008.72;4953063;28;20034;-60
2021/06/27 11:22:21;;;;;;;0.10;0.10;;;;;;;25.19;44.62;98007.44;4970630;28;20116;-59
2021/06/27 11:24:51;;;;;;;0.52;0.20;;;;;;;25.30;44.09;98004.16;4986954;28;20090;-62
2021/06/27 11:27:34;;;;;;;0.00;0.00;;;;;;;25.40;43.69;97997.25;4993306;28;20123;-62
2021/06/27 11:30:21;;;;;;;0.10;0.10;;;;;;;25.48;43.75;98002.75;5044965;28;20406;-64
2021/06/27 11:32:48;;;;;;;0.15;0.15;;;;;;;25.56;43.74;97986.94;5042168;28;20103;-63
2021/06/27 11:35:40;;;;;;;0.52;0.30;;;;;;;25.59;43.70;97991.88;5040165;28;20031;-60
2021/06/27 11:38:07;;;;;;;0.00;0.00;;;;;;;25.55;43.58;97984.50;5034060;28;20035;-61
2021/06/27 11:40:50;;;;;;;0.00;0.00;;;;;;;25.52;43.39;97981.19;5050028;28;20024;-61